ADDS METAR Data INFO
IDs: Format: Raw Decoded Include TAF

Data at: 0856 UTC 18 Aug 2017

KWVI 180851Z AUTO 00000KT 10SM OVC005 16/14 A3002 RMK AO2 TSNO
KWVI 180753Z AUTO 00000KT 10SM OVC007 16/14 A3003 RMK AO2 SLP168 T01560139 402220144 TSNO
KWVI 180733Z AUTO 00000KT 10SM BKN007 14/13 A3003 RMK AO2 T01440133 TSNO
KWVI 180724Z AUTO 00000KT 10SM SCT007 14/13 A3003 RMK AO2 T01440133 TSNO
KWVI 180653Z AUTO 00000KT 10SM CLR 14/13 A3003 RMK AO2 SLP169 T01440133 TSNO
KWVI 180553Z AUTO 00000KT 10SM CLR 15/13 A3003 RMK AO2 SLP170 T01500133 10206 20144 51007 TSNO
KWVI 180453Z AUTO 00000KT 10SM CLR 16/14 A3003 RMK AO2 SLP168 T01560139 TSNO
KWVI 180353Z AUTO 00000KT 10SM CLR 16/14 A3002 RMK AO2 SLP165 T01560139 TSNO
KWVI 180253Z AUTO 23005KT 10SM CLR 16/14 A3001 RMK AO2 SLP163 T01610139 53004 TSNO
KWVI 180153Z AUTO 24005KT 10SM CLR 18/14 A2999 RMK AO2 SLP157 T01780139 TSNO
KWVI 180053Z AUTO 20008KT 10SM CLR 19/14 A3000 RMK AO2 SLP157 T01940139 TSNO
KWVI 172353Z AUTO 23008KT 10SM CLR 21/14 A3000 RMK AO2 SLP157 T02060139 10222 20189 57011 TSNO
KWVI 172253Z AUTO 24008KT 10SM CLR 21/13 A3001 RMK AO2 SLP160 T02110133 TSNO
KWVI 172153Z AUTO 23009KT 200V270 10SM CLR 21/13 A3003 RMK AO2 SLP166 T02110133 TSNO
KWVI 172053Z AUTO 26007KT 10SM CLR 22/14 A3003 RMK AO2 SLP168 T02170139 58010 TSNO
KWVI 171953Z AUTO VRB06KT 10SM CLR 21/14 A3005 RMK AO2 SLP173 T02110139 TSNO
KWVI 171853Z AUTO 22008KT 180V250 10SM CLR 21/14 A3006 RMK AO2 SLP178 T02060139 TSNO
KWVI 171808Z AUTO 21008KT 10SM SCT014 19/14 A3007 RMK AO2 T01890139 TSNO
KWVI 171753Z AUTO 19007KT 10SM BKN014 19/14 A3006 RMK AO2 SLP180 T01890139 10189 20150 51014 TSNO
KWVI 171653Z AUTO 19004KT 10SM OVC012 17/13 A3005 RMK AO2 SLP176 T01720133 TSNO
KWVI 171553Z AUTO 00000KT 10SM OVC011 17/13 A3004 RMK AO2 SLP173 T01670133 TSNO
KWVI 171541Z AUTO 00000KT 10SM OVC010 16/13 A3004 RMK AO2 T01610133 TSNO
KWVI 171453Z AUTO 00000KT 10SM OVC009 16/13 A3002 RMK AO2 SLP166 T01560133 51011 TSNO
KWVI 171432Z AUTO 00000KT 10SM OVC009 16/13 A3002 RMK AO2 T01560133 TSNO
KWVI 171353Z AUTO 00000KT 10SM OVC010 16/13 A3002 RMK AO2 SLP164 T01560133 TSNO
KWVI 171253Z AUTO 00000KT 10SM OVC010 16/13 A3000 RMK AO2 SLP159 T01560133 TSNO
KWVI 171153Z AUTO 36003KT 10SM OVC010 16/13 A2999 RMK AO2 SLP155 T01560133 10161 20156 56005 TSNO
KWVI 171053Z AUTO 00000KT 10SM OVC011 16/13 A2999 RMK AO2 SLP156 T01560133 TSNO
KWVI 170953Z AUTO 00000KT 10SM OVC011 16/13 A3000 RMK AO2 SLP156 T01560133 TSNO
No TAF found for KWVI

KSNS 180753Z AUTO 29004KT 10SM CLR 16/14 A3002 RMK AO2 SLP173 T01610139 402220156
KSNS 180653Z AUTO 29005KT 10SM CLR 16/14 A3002 RMK AO2 SLP174 T01610139
KSNS 180553Z AUTO 30007KT 10SM CLR 17/14 A3002 RMK AO2 SLP174 T01670139 10211 20167 51008
KSNS 180453Z AUTO 30008KT 10SM CLR 17/13 A3001 RMK AO2 SLP172 T01670133
KSNS 180353Z AUTO 30008KT 10SM CLR 17/13 A3000 RMK AO2 SLP169 T01670133
KSNS 180253Z AUTO 29010KT 10SM CLR 17/13 A2999 RMK AO2 SLP165 T01720133 53005
KSNS 180153Z 29011KT 10SM CLR 19/14 A2998 RMK AO2 SLP161 T01890139
KSNS 180053Z 30011KT 10SM CLR 20/14 A2998 RMK AO2 SLP160 T02000139
KSNS 172353Z 29012KT 10SM CLR 21/14 A2998 RMK AO2 SLP160 T02060139 10222 20194 56013
KSNS 172253Z 29013KT 10SM CLR 22/14 A2999 RMK AO2 SLP163 T02170139
KSNS 172153Z 27012KT 10SM CLR 22/14 A3000 RMK AO2 SLP168 T02170139
KSNS 172053Z 27010KT 10SM CLR 21/14 A3002 RMK AO2 SLP173 T02110139 58009
KSNS 171953Z 30011KT 10SM CLR 21/14 A3003 RMK AO2 SLP177 T02110139
KSNS 171853Z 28009KT 9SM CLR 20/14 A3004 RMK AO2 SLP181 T02000139
KSNS 171753Z 31003KT 9SM CLR 19/14 A3004 RMK AO2 SLP182 T01940139 10200 20156 51010
KSNS 171729Z 00000KT 9SM SCT015 18/14 A3004 RMK AO2 T01830139
KSNS 171653Z 00000KT 8SM OVC013 17/14 A3004 RMK AO2 SLP181 T01720139
KSNS 171553Z 00000KT 8SM OVC011 16/13 A3003 RMK AO2 SLP178 T01610133
KSNS 171453Z 05003KT 8SM OVC010 16/13 A3001 RMK AO2 SLP172 T01560133 51012
KSNS 171353Z 12004KT 9SM OVC011 16/13 A3000 RMK AO2 SLP169 T01560133
KSNS 171253Z 00000KT 10SM OVC012 16/13 A2999 RMK AO2 SLP164 T01610133
KSNS 171153Z AUTO 07003KT 10SM OVC012 16/13 A2998 RMK AO2 SLP160 T01610133 10172 20161 56005
KSNS 171053Z AUTO 01003KT 10SM OVC012 16/13 A2998 RMK AO2 SLP161 T01610133
KSNS 170953Z AUTO 33003KT 10SM OVC013 16/13 A2999 RMK AO2 SLP163 T01610133

KSNS 180524Z 1806/1906 29007KT P6SM SKC
  FM180900 29004KT P6SM SKC
  FM181900 29012KT P6SM SKC
  FM190400 29006KT P6SM SKC


KMRY 180754Z AUTO 00000KT 10SM CLR 14/12 A3003 RMK AO2 SLP179 T01440117 402170144
KMRY 180654Z AUTO 00000KT 10SM CLR 16/12 A3003 RMK AO2 SLP180 T01560122
KMRY 180554Z AUTO 21003KT 10SM CLR 16/13 A3003 RMK AO2 SLP180 T01610133 10211 20161 53006
KMRY 180454Z AUTO 00000KT 10SM CLR 17/13 A3003 RMK AO2 SLP180 T01670133
KMRY 180354Z AUTO 22004KT 10SM CLR 17/13 A3001 RMK AO2 SLP174 T01670133
KMRY 180254Z 25005KT 10SM CLR 17/13 A3001 RMK AO2 SLP174 T01720133 53007
KMRY 180154Z 25005KT 10SM CLR 19/14 A2999 RMK AO2 SLP167 T01890139
KMRY 180054Z 25006KT 10SM CLR 21/14 A2999 RMK AO2 SLP165 T02060139
KMRY 172354Z 25008KT 10SM CLR 21/14 A2999 RMK AO2 SLP166 T02110139 10217 20189 56013
KMRY 172254Z 28009KT 10SM CLR 21/14 A3000 RMK AO2 SLP170 T02110139
KMRY 172154Z 24005KT 10SM CLR 21/14 A3002 RMK AO2 SLP175 T02110139
KMRY 172054Z 26007KT 10SM CLR 22/14 A3003 RMK AO2 SLP179 T02170139 58010
KMRY 171954Z VRB05KT 10SM CLR 21/13 A3004 RMK AO2 SLP184 T02060133
KMRY 171854Z VRB05KT 10SM FEW016 20/13 A3006 RMK AO2 SLP188 T02000133
KMRY 171754Z VRB05KT 10SM FEW016 19/13 A3006 RMK AO2 SLP189 T01890133 10189 20156 51012
KMRY 171735Z VRB03KT 10SM SCT018 18/13 A3006 RMK AO2 T01780133
KMRY 171654Z 30005KT 10SM BKN018 17/13 A3005 RMK AO2 SLP187 T01720128
KMRY 171554Z VRB03KT 10SM OVC011 16/13 A3004 RMK AO2 SLP183 T01610133
KMRY 171454Z 00000KT 10SM OVC010 16/13 A3002 RMK AO2 SLP177 T01610133 51012
KMRY 171354Z VRB03KT 10SM OVC010 16/13 A3001 RMK AO2 SLP174 T01560133
KMRY 171254Z 00000KT 10SM OVC010 16/13 A3000 RMK AO2 SLP168 T01560133
KMRY 171154Z AUTO 07003KT 10SM OVC011 16/13 A2999 RMK AO2 SLP165 T01560128 10167 20156 56005
KMRY 171054Z AUTO 11005KT 10SM OVC012 16/13 A2999 RMK AO2 SLP165 T01560128
KMRY 170954Z AUTO 00000KT 10SM OVC012 16/13 A2999 RMK AO2 SLP168 T01610133

KMRY 180524Z 1806/1906 VRB03KT P6SM SKC
  FM181700 28004KT P6SM SKC
  FM182000 28008KT P6SM SKC
  FM190400 24005KT P6SM SKC


KSJC 180753Z AUTO 31005KT 10SM CLR 18/15 A3000 RMK AO2 SLP159 T01780150 402720156
KSJC 180653Z 29005KT 10SM CLR 18/14 A3000 RMK AO2 SLP158 LAST T01780144
KSJC 180553Z 30007KT 10SM CLR 19/14 A3000 RMK AO2 SLP158 T01890144 10261 20189 51012
KSJC 180453Z 28006KT 10SM CLR 19/14 A2999 RMK AO2 SLP155 T01940144
KSJC 180353Z 28007KT 10SM CLR 20/14 A2998 RMK AO2 SLP150 T02000144
KSJC 180253Z 29007KT 10SM FEW055 21/15 A2997 RMK AO2 SLP146 T02110150 53007
KSJC 180153Z 28011KT 10SM FEW055 22/16 A2995 RMK AO2 SLP142 T02220161
KSJC 180053Z 30011KT 10SM FEW055 24/16 A2995 RMK AO2 SLP139 T02440161
KSJC 172353Z 30011KT 10SM FEW055 26/16 A2994 RMK AO2 SLP139 T02610156 10272 20222 58015
KSJC 172253Z 29010KT 10SM CLR 27/16 A2996 RMK AO2 SLP143 T02670161
KSJC 172153Z 31010KT 10SM CLR 27/16 A2998 RMK AO2 SLP150 T02670161
KSJC 172053Z 30007KT 10SM CLR 26/16 A2999 RMK AO2 SLP153 T02610161 58013
KSJC 171953Z 32008KT 10SM CLR 26/15 A3000 RMK AO2 SLP159 T02560150
KSJC 171853Z VRB04KT 10SM CLR 24/14 A3002 RMK AO2 SLP163 T02440139
KSJC 171753Z 00000KT 10SM CLR 23/14 A3002 RMK AO2 SLP166 T02280144 10228 20156 51009
KSJC 171653Z 00000KT 10SM CLR 21/14 A3002 RMK AO2 SLP165 T02060139
KSJC 171553Z 00000KT 8SM CLR 19/14 A3001 RMK AO2 SLP161 T01890139
KSJC 171453Z 13005KT 7SM FEW010 17/13 A3000 RMK AO2 SLP157 T01720133 53007
KSJC 171353Z 14006KT 7SM FEW010 16/13 A2999 RMK AO2 SLP154 T01610133
KSJC 171253Z 14005KT 10SM CLR 16/13 A2998 RMK AO2 SLP151 T01610133
KSJC 171153Z AUTO 14006KT 10SM CLR 16/13 A2998 RMK AO2 SLP150 T01610133 10183 20161 53002
KSJC 171053Z AUTO 15004KT 10SM CLR 16/13 A2997 RMK AO2 SLP149 T01610133
KSJC 170953Z AUTO 14007KT 10SM CLR 17/13 A2997 RMK AO2 SLP149 T01670133

KSJC 180524Z 1806/1906 30006KT P6SM SKC
  FM180700 VRB03KT P6SM SKC
  FM182000 30010KT P6SM SKC
  FM190400 31005KT P6SM SKC


KSFO 180756Z 28011KT 10SM FEW008 18/13 A3000 RMK AO2 SLP159 T01780133 402220156 $
KSFO 180656Z 28013KT 10SM FEW008 19/13 A3000 RMK AO2 SLP158 T01890133 $
KSFO 180556Z 28015KT 10SM FEW009 19/13 A3000 RMK AO2 SLP157 T01890133 10211 20172 50011 $
KSFO 180456Z 29012KT 10SM FEW009 19/13 A3000 RMK AO2 SLP158 T01890133 $
KSFO 180356Z 30014KT 10SM FEW010 19/13 A2998 RMK AO2 SLP151 T01890133 $
KSFO 180256Z COR 30014KT 10SM FEW010 18/13 A2996 RMK AO2 SLP146 T01780133 53002
KSFO 180156Z 29014KT 10SM FEW010 19/13 A2996 RMK AO2 SLP144 T01890128
KSFO 180056Z 29018KT 10SM FEW012 20/13 A2996 RMK AO2 SLP145 T02000128
KSFO 172356Z 29020KT 10SM FEW014 21/13 A2996 RMK AO2 SLP144 T02110128 10222 20194 57013
KSFO 172256Z 30018KT 10SM FEW014 21/13 A2997 RMK AO2 SLP149 T02110133
KSFO 172156Z 30016KT 10SM FEW014 22/13 A2998 RMK AO2 SLP152 T02170133
KSFO 172056Z 31015KT 10SM FEW012 22/13 A2999 RMK AO2 SLP157 T02220133 58012
KSFO 171956Z 33014KT 10SM FEW012 22/13 A3001 RMK AO2 SLP163 T02170133
KSFO 171856Z 02008KT 10SM CLR 21/14 A3003 RMK AO2 SLP170 T02060139
KSFO 171756Z 36005KT 9SM CLR 20/14 A3003 RMK AO2 SLP169 T02000139 10200 20161 51011
KSFO 171656Z 33006KT 9SM BKN014 19/14 A3002 RMK AO2 SLP166 T01890139
KSFO 171556Z 30004KT 9SM OVC012 18/13 A3001 RMK AO2 SLP162 T01780133
KSFO 171456Z 30004KT 9SM SCT010 OVC012 17/13 A3000 RMK AO2 SLP158 T01720133 53009
KSFO 171356Z 00000KT 9SM SCT010 OVC012 17/13 A2999 RMK AO2 SLP154 T01720133
KSFO 171256Z 00000KT 10SM BKN011 BKN014 16/13 A2997 RMK AO2 SLP150 T01610128
KSFO 171156Z 29004KT 10SM FEW010 SCT012 BKN014 16/13 A2997 RMK AO2 SLP148 T01610128 10172 20156 58001
KSFO 171137Z 22003KT 10SM FEW011 BKN014 16/13 A2997 RMK AO2 T01610128
KSFO 171056Z 18003KT 10SM FEW015 16/13 A2997 RMK AO2 SLP149 T01610128
KSFO 170956Z 28005KT 10SM FEW015 16/12 A2997 RMK AO2 SLP150 T01560122

KSFO 180854Z 1809/1912 29008KT P6SM FEW011
  FM181200 29006KT P6SM BKN009
  FM181700 30008KT P6SM SCT014
  FM181900 29015KT P6SM FEW010
  FM190400 29008KT P6SM FEW010


KHAF 180835Z AUTO 00000KT 7SM OVC008 15/ A2999 RMK AO2
KHAF 180815Z AUTO 00000KT 8SM OVC008 15/ A3000 RMK AO2
KHAF 180755Z AUTO 00000KT 8SM OVC008 15/ A3000 RMK AO2
KHAF 180735Z AUTO 00000KT 8SM OVC008 15/ A3000 RMK AO2
KHAF 180715Z AUTO 00000KT 10SM OVC008 15/ A3000 RMK AO2
KHAF 180655Z AUTO 00000KT 10SM OVC008 15/ A3000 RMK AO2
KHAF 180635Z AUTO 00000KT 10SM OVC010 15/13 A3000 RMK AO2
KHAF 180615Z AUTO 00000KT 10SM OVC010 14/13 A3000 RMK AO2
KHAF 180555Z AUTO 00000KT 10SM OVC010 14/12 A3000 RMK AO2
KHAF 180535Z AUTO 00000KT 9SM SCT010 SCT034 BKN044 14/12 A3000 RMK AO2
KHAF 180515Z AUTO 00000KT 10SM FEW014 FEW038 BKN049 14/12 A3000 RMK AO2
KHAF 180455Z AUTO 00000KT 8SM SCT014 BKN038 BKN046 14/12 A3000 RMK AO2
KHAF 180435Z AUTO 00000KT 8SM FEW014 SCT040 BKN046 14/13 A3000 RMK AO2
KHAF 180415Z AUTO 04003KT 8SM FEW043 SCT050 14/13 A2999 RMK AO2
KHAF 180355Z AUTO 05003KT 8SM FEW048 15/13 A2998 RMK AO2
KHAF 180335Z AUTO 00000KT 7SM FEW045 15/13 A2998 RMK AO2
KHAF 180315Z AUTO 00000KT 5SM BR CLR 15/14 A2997 RMK AO2
KHAF 180255Z AUTO 00000KT 6SM BR CLR 16/14 A2997 RMK AO2
KHAF 180235Z AUTO 7SM CLR 16/ A2997 RMK AO2
KHAF 180215Z AUTO 00000KT 8SM CLR 17/ A2997 RMK AO2
KHAF 180155Z AUTO 7SM CLR 17/ A2997 RMK AO2
KHAF 180135Z AUTO 26003KT 8SM CLR 17/ A2997 RMK AO2
KHAF 180115Z AUTO 8SM CLR 17/ A2997 RMK AO2
KHAF 180055Z AUTO 27004KT 8SM CLR 17/ A2998 RMK AO2
KHAF 180035Z AUTO 24005KT 7SM CLR 17/ A2998 RMK AO2
KHAF 180015Z AUTO 26005KT 8SM CLR 18/ A2998 RMK AO2
KHAF 172355Z AUTO 22005KT 9SM CLR 18/ A2998 RMK AO2
KHAF 172335Z AUTO 18005KT 7SM CLR 18/ A2998 RMK AO2
KHAF 172315Z AUTO 21005KT 9SM CLR 18/ A2999 RMK AO2
KHAF 172255Z AUTO 20005KT 9SM SCT014 17/ A3000 RMK AO2
KHAF 172235Z AUTO 20005KT 9SM SCT014 18/ A3000 RMK AO2
KHAF 172215Z AUTO 18006KT 9SM BKN014 18/ A3000 RMK AO2
KHAF 172155Z AUTO 21006KT 9SM OVC014 18/ A3000 RMK AO2
KHAF 172135Z AUTO 18006KT 9SM BKN014 18/ A3001 RMK AO2
KHAF 172115Z AUTO 22007KT 8SM BKN014 18/ A3001 RMK AO2
KHAF 172055Z AUTO 23008KT 190V260 9SM BKN014 18/ A3001 RMK AO2
KHAF 172035Z AUTO 20007KT 160V230 9SM FEW014 18/ A3001 RMK AO2
KHAF 172015Z AUTO 20007KT 10SM FEW014 18/ A3002 RMK AO2
KHAF 171955Z AUTO 16009KT 10SM BKN014 18/ A3003 RMK AO2
KHAF 171935Z AUTO 16008KT 120V190 10SM OVC012 18/ A3003 RMK AO2
KHAF 171915Z AUTO 18007KT 9SM OVC012 17/ A3004 RMK AO2
KHAF 171855Z AUTO 19008KT 10SM OVC012 17/ A3004 RMK AO2
KHAF 171835Z AUTO 17008KT 10SM OVC012 17/ A3004 RMK AO2
KHAF 171815Z AUTO 18007KT 10SM OVC012 17/ A3003 RMK AO2
KHAF 171755Z AUTO 18008KT 10SM OVC012 16/ A3003 RMK AO2
KHAF 171735Z AUTO 16007KT 9SM OVC012 16/ A3003 RMK AO2
KHAF 171715Z AUTO 17007KT 9SM OVC010 16/ A3003 RMK AO2
KHAF 171655Z AUTO 18008KT 9SM OVC010 16/ A3002 RMK AO2
KHAF 171635Z AUTO 17007KT 8SM OVC008 15/ A3001 RMK AO2
KHAF 171615Z AUTO 17006KT 6SM HZ OVC008 15/ A3001 RMK AO2
KHAF 171555Z AUTO 18005KT 6SM HZ OVC008 15/ A3001 RMK AO2
KHAF 171535Z AUTO 7SM OVC008 15/ A3000 RMK AO2
KHAF 171515Z AUTO 18005KT 7SM OVC008 15/ A2999 RMK AO2
KHAF 171455Z AUTO 15005KT 7SM OVC008 15/ A2999 RMK AO2
KHAF 171435Z AUTO 19004KT 7SM OVC010 15/13 A2999 RMK AO2
KHAF 171415Z AUTO 21003KT 5SM BR OVC010 15/13 A2998 RMK AO2
KHAF 171355Z AUTO 19004KT 7SM OVC010 15/13 A2997 RMK AO2
KHAF 171335Z AUTO 8SM OVC010 15/13 A2997 RMK AO2
KHAF 171315Z AUTO 8SM OVC010 15/13 A2997 RMK AO2
KHAF 171255Z AUTO 17004KT 8SM OVC010 15/13 A2996 RMK AO2
KHAF 171235Z AUTO 16004KT 10SM OVC010 15/13 A2996 RMK AO2
KHAF 171215Z AUTO 17006KT 10SM OVC010 15/13 A2995 RMK AO2
KHAF 171155Z AUTO 19005KT 10SM OVC010 15/13 A2996 RMK AO2
KHAF 171135Z AUTO 16005KT 8SM OVC010 15/13 A2996 RMK AO2
KHAF 171115Z AUTO 17006KT 10SM OVC010 15/13 A2996 RMK AO2
KHAF 171055Z AUTO 15006KT 10SM OVC010 15/13 A2996 RMK AO2
KHAF 171035Z AUTO 17008KT 9SM OVC010 15/13 A2996 RMK AO2
KHAF 171015Z AUTO 16006KT 9SM OVC010 15/13 A2996 RMK AO2
KHAF 170955Z AUTO 16009KT 9SM OVC010 15/13 A2996 RMK AO2
KHAF 170935Z AUTO 17006KT 8SM OVC010 15/13 A2997 RMK AO2
KHAF 170915Z AUTO 17009KT 8SM OVC010 15/13 A2996 RMK AO2
No TAF found for KHAF